OPA Logo
 
ASOS:
At:2021.02.26 2115 UTC
Wind:300° @ 14-22 KT
Viz: 1 mile(s)
Sky: mostly cloudy
Temp: light snow
DewP: 33 F (1 C)
RH: 23 F (-5 C):1
Baro: 23 F (-5 C):1
ob: KBDN 262115Z AUTO 30014G22KT 1SM -SN SCT002 BKN011 BKN017 01/M02 A3004 RMK AO2

ASOS: KRDM
At:2021.02.26 2056 UTC
Wind:290° @ 22-29 KT
Viz: 10 mile(s)
Sky: mostly clear
Temp: 42.1 F (5.6 C)
DewP: 19.0 F (-7.2 C)
RH: 39%
Baro: 30.01 in.
ob: KRDM 262056Z 29022G29KT 10SM FEW049 FEW080 06/M07 A3001 RMK AO2 PK WND 29029/2055 SLP172 60000 T00561072 50002
Apache-SSL Logo

Valid HTML 4.01!

Local FAA Notices



15 May 2002 - FAA APPROVES 4 new antennas near St. Charles Hospital


2 May 2002, FAA Northwest Mountain Region Letter to Airmen 02-01

VFR Practice Approaches: Page 1, Page 2, Page 3, Page 4.


11 Apr 2002 - FAA Public Notice, 4 new antennas near St. Charles Hospital



Web page by: gem@rellim.com